sensor_id;sensor_type;location;lat;lon;timestamp;pressure;altitude;pressure_sealevel;temperature;humidity
43741;BME280;29352;48.708;9.290;2023-02-18T00:01:27;98789.56;;;3.85;80.61
43741;BME280;29352;48.708;9.290;2023-02-18T00:03:57;98782.78;;;4.00;80.36
43741;BME280;29352;48.708;9.290;2023-02-18T00:06:29;98783.78;;;3.99;80.08
43741;BME280;29352;48.708;9.290;2023-02-18T00:08:57;98767.31;;;3.88;80.38
43741;BME280;29352;48.708;9.290;2023-02-18T00:11:27;98769.91;;;3.79;80.43
43741;BME280;29352;48.708;9.290;2023-02-18T00:13:56;98766.03;;;3.56;80.80
43741;BME280;29352;48.708;9.290;2023-02-18T00:16:25;98757.97;;;3.57;80.72
43741;BME280;29352;48.708;9.290;2023-02-18T00:18:57;98763.25;;;3.75;80.24
43741;BME280;29352;48.708;9.290;2023-02-18T00:21:24;98768.59;;;3.84;80.08
43741;BME280;29352;48.708;9.290;2023-02-18T00:23:51;98765.38;;;3.90;79.82
43741;BME280;29352;48.708;9.290;2023-02-18T00:26:18;98765.72;;;3.95;79.42
43741;BME280;29352;48.708;9.290;2023-02-18T00:28:45;98764.59;;;3.97;79.37
43741;BME280;29352;48.708;9.290;2023-02-18T00:31:19;98752.81;;;3.92;79.22
43741;BME280;29352;48.708;9.290;2023-02-18T00:33:46;98769.06;;;3.97;79.22
43741;BME280;29352;48.708;9.290;2023-02-18T00:36:14;98764.97;;;3.85;79.17
43741;BME280;29352;48.708;9.290;2023-02-18T00:38:56;98763.03;;;3.87;79.22
43741;BME280;29352;48.708;9.290;2023-02-18T00:41:25;98758.34;;;3.80;79.57
43741;BME280;29352;48.708;9.290;2023-02-18T00:43:53;98762.00;;;4.06;78.68
43741;BME280;29352;48.708;9.290;2023-02-18T00:46:20;98767.41;;;3.96;78.91
43741;BME280;29352;48.708;9.290;2023-02-18T00:48:47;98759.63;;;3.94;79.04
43741;BME280;29352;48.708;9.290;2023-02-18T00:51:12;98760.88;;;4.08;78.59
43741;BME280;29352;48.708;9.290;2023-02-18T00:53:39;98750.63;;;4.05;78.72
43741;BME280;29352;48.708;9.290;2023-02-18T00:56:06;98745.75;;;4.18;78.68
43741;BME280;29352;48.708;9.290;2023-02-18T00:58:32;98736.91;;;3.84;80.05
43741;BME280;29352;48.708;9.290;2023-02-18T01:00:59;98743.22;;;4.09;79.59
43741;BME280;29352;48.708;9.290;2023-02-18T01:03:25;98751.34;;;3.89;79.86
43741;BME280;29352;48.708;9.290;2023-02-18T01:05:52;98753.53;;;3.76;81.10
43741;BME280;29352;48.708;9.290;2023-02-18T01:08:20;98752.16;;;3.90;80.44
43741;BME280;29352;48.708;9.290;2023-02-18T01:10:48;98759.31;;;3.97;80.04
43741;BME280;29352;48.708;9.290;2023-02-18T01:13:16;98751.63;;;3.86;80.19
43741;BME280;29352;48.708;9.290;2023-02-18T01:15:42;98761.25;;;3.95;79.96
43741;BME280;29352;48.708;9.290;2023-02-18T01:18:11;98755.69;;;3.98;79.74
43741;BME280;29352;48.708;9.290;2023-02-18T01:20:39;98742.25;;;3.92;80.17
43741;BME280;29352;48.708;9.290;2023-02-18T01:23:07;98735.78;;;3.86;79.90
43741;BME280;29352;48.708;9.290;2023-02-18T01:25:34;98733.88;;;3.78;80.17
43741;BME280;29352;48.708;9.290;2023-02-18T01:28:02;98736.53;;;3.96;79.87
43741;BME280;29352;48.708;9.290;2023-02-18T01:30:28;98734.88;;;3.77;80.76
43741;BME280;29352;48.708;9.290;2023-02-18T01:32:56;98736.31;;;3.90;80.40
43741;BME280;29352;48.708;9.290;2023-02-18T01:35:22;98731.94;;;3.80;80.79
43741;BME280;29352;48.708;9.290;2023-02-18T01:37:48;98731.06;;;3.72;81.01
43741;BME280;29352;48.708;9.290;2023-02-18T01:40:18;98730.84;;;3.65;81.23
43741;BME280;29352;48.708;9.290;2023-02-18T01:42:47;98725.91;;;3.70;81.52
43741;BME280;29352;48.708;9.290;2023-02-18T01:47:59;98736.94;;;3.48;82.16
43741;BME280;29352;48.708;9.290;2023-02-18T01:50:28;98737.19;;;3.54;81.69
43741;BME280;29352;48.708;9.290;2023-02-18T01:52:55;98738.53;;;3.41;82.29
43741;BME280;29352;48.708;9.290;2023-02-18T01:55:21;98731.38;;;3.51;81.85
43741;BME280;29352;48.708;9.290;2023-02-18T01:57:47;98729.16;;;3.46;82.00
43741;BME280;29352;48.708;9.290;2023-02-18T02:00:16;98729.97;;;3.47;82.20
43741;BME280;29352;48.708;9.290;2023-02-18T02:02:47;98728.50;;;3.62;81.75
43741;BME280;29352;48.708;9.290;2023-02-18T02:05:15;98733.47;;;3.47;81.84
43741;BME280;29352;48.708;9.290;2023-02-18T02:07:42;98720.47;;;3.54;81.56
43741;BME280;29352;48.708;9.290;2023-02-18T02:10:12;98728.59;;;3.78;81.06
43741;BME280;29352;48.708;9.290;2023-02-18T02:15:57;98717.09;;;3.44;81.81
43741;BME280;29352;48.708;9.290;2023-02-18T02:19:00;98703.00;;;3.53;81.50
43741;BME280;29352;48.708;9.290;2023-02-18T02:25:08;98715.44;;;3.61;80.99
43741;BME280;29352;48.708;9.290;2023-02-18T02:30:58;98709.31;;;3.60;80.91
43741;BME280;29352;48.708;9.290;2023-02-18T02:36:45;98707.75;;;3.49;81.65
43741;BME280;29352;48.708;9.290;2023-02-18T02:39:33;98711.19;;;3.68;80.49
43741;BME280;29352;48.708;9.290;2023-02-18T02:42:35;98701.88;;;3.55;81.04
43741;BME280;29352;48.708;9.290;2023-02-18T02:51:10;98702.41;;;3.59;80.77
43741;BME280;29352;48.708;9.290;2023-02-18T02:53:43;98698.47;;;3.45;81.35
43741;BME280;29352;48.708;9.290;2023-02-18T02:56:14;98690.25;;;3.48;81.22
43741;BME280;29352;48.708;9.290;2023-02-18T02:58:41;98687.97;;;3.53;81.33
43741;BME280;29352;48.708;9.290;2023-02-18T03:01:19;98691.16;;;3.39;81.72
43741;BME280;29352;48.708;9.290;2023-02-18T03:12:56;98688.38;;;3.41;81.58
43741;BME280;29352;48.708;9.290;2023-02-18T03:18:33;98691.22;;;3.29;81.76
43741;BME280;29352;48.708;9.290;2023-02-18T03:21:09;98691.53;;;3.26;81.81
43741;BME280;29352;48.708;9.290;2023-02-18T03:26:18;98676.38;;;3.28;82.10
43741;BME280;29352;48.708;9.290;2023-02-18T03:28:49;98679.03;;;3.28;82.04
43741;BME280;29352;48.708;9.290;2023-02-18T03:31:20;98669.78;;;2.97;82.82
43741;BME280;29352;48.708;9.290;2023-02-18T03:33:58;98665.63;;;3.12;82.66
43741;BME280;29352;48.708;9.290;2023-02-18T03:36:30;98664.69;;;3.13;82.67
43741;BME280;29352;48.708;9.290;2023-02-18T03:39:03;98665.81;;;3.11;82.44
43741;BME280;29352;48.708;9.290;2023-02-18T03:41:31;98658.13;;;3.17;82.15
43741;BME280;29352;48.708;9.290;2023-02-18T03:44:01;98644.25;;;3.15;82.02
43741;BME280;29352;48.708;9.290;2023-02-18T03:46:30;98651.56;;;3.21;81.84
43741;BME280;29352;48.708;9.290;2023-02-18T03:48:57;98648.56;;;3.16;82.18
43741;BME280;29352;48.708;9.290;2023-02-18T03:51:23;98646.88;;;3.15;82.05
43741;BME280;29352;48.708;9.290;2023-02-18T03:53:48;98645.53;;;3.11;81.95
43741;BME280;29352;48.708;9.290;2023-02-18T03:56:14;98654.88;;;3.23;81.22
43741;BME280;29352;48.708;9.290;2023-02-18T03:58:40;98659.31;;;3.23;81.23
43741;BME280;29352;48.708;9.290;2023-02-18T04:01:05;98671.59;;;3.14;81.46
43741;BME280;29352;48.708;9.290;2023-02-18T04:03:31;98666.63;;;3.11;81.60
43741;BME280;29352;48.708;9.290;2023-02-18T04:05:57;98667.13;;;3.24;81.16
43741;BME280;29352;48.708;9.290;2023-02-18T04:08:23;98675.53;;;3.10;81.44
43741;BME280;29352;48.708;9.290;2023-02-18T04:10:49;98675.59;;;3.00;81.62
43741;BME280;29352;48.708;9.290;2023-02-18T04:13:15;98661.28;;;3.03;81.60
43741;BME280;29352;48.708;9.290;2023-02-18T04:15:45;98673.94;;;2.99;81.55
43741;BME280;29352;48.708;9.290;2023-02-18T04:18:13;98670.38;;;2.91;81.67
43741;BME280;29352;48.708;9.290;2023-02-18T04:20:38;98669.53;;;2.90;81.53
43741;BME280;29352;48.708;9.290;2023-02-18T04:23:04;98661.66;;;3.08;81.15
43741;BME280;29352;48.708;9.290;2023-02-18T04:25:30;98665.34;;;2.97;81.30
43741;BME280;29352;48.708;9.290;2023-02-18T04:27:55;98656.81;;;2.85;81.42
43741;BME280;29352;48.708;9.290;2023-02-18T04:30:22;98659.06;;;2.80;81.44
43741;BME280;29352;48.708;9.290;2023-02-18T04:32:47;98655.28;;;2.65;82.15
43741;BME280;29352;48.708;9.290;2023-02-18T04:35:13;98660.13;;;2.60;82.44
43741;BME280;29352;48.708;9.290;2023-02-18T04:37:39;98645.88;;;2.53;82.75
43741;BME280;29352;48.708;9.290;2023-02-18T04:40:05;98657.31;;;2.44;82.67
43741;BME280;29352;48.708;9.290;2023-02-18T04:42:31;98654.19;;;2.30;83.41
43741;BME280;29352;48.708;9.290;2023-02-18T04:44:56;98658.50;;;2.22;83.58
43741;BME280;29352;48.708;9.290;2023-02-18T04:47:21;98661.56;;;2.17;83.64
43741;BME280;29352;48.708;9.290;2023-02-18T04:49:47;98661.41;;;2.19;83.87
43741;BME280;29352;48.708;9.290;2023-02-18T04:52:12;98653.81;;;2.16;84.25
43741;BME280;29352;48.708;9.290;2023-02-18T04:54:38;98666.56;;;2.20;83.71
43741;BME280;29352;48.708;9.290;2023-02-18T04:57:03;98656.31;;;2.17;83.88
43741;BME280;29352;48.708;9.290;2023-02-18T04:59:29;98662.84;;;2.13;84.39
43741;BME280;29352;48.708;9.290;2023-02-18T05:01:54;98662.31;;;2.09;84.80
43741;BME280;29352;48.708;9.290;2023-02-18T05:04:20;98667.97;;;2.14;84.20
43741;BME280;29352;48.708;9.290;2023-02-18T05:06:46;98673.63;;;2.20;84.18
43741;BME280;29352;48.708;9.290;2023-02-18T05:09:11;98672.25;;;2.16;84.54
43741;BME280;29352;48.708;9.290;2023-02-18T05:11:37;98667.09;;;2.24;84.27
43741;BME280;29352;48.708;9.290;2023-02-18T05:14:03;98664.34;;;2.16;84.36
43741;BME280;29352;48.708;9.290;2023-02-18T05:16:28;98659.31;;;2.22;84.46
43741;BME280;29352;48.708;9.290;2023-02-18T05:18:54;98660.22;;;2.13;84.42
43741;BME280;29352;48.708;9.290;2023-02-18T05:21:19;98664.88;;;2.19;84.54
43741;BME280;29352;48.708;9.290;2023-02-18T05:23:44;98662.44;;;2.08;85.23
43741;BME280;29352;48.708;9.290;2023-02-18T05:26:10;98662.41;;;2.18;85.04
43741;BME280;29352;48.708;9.290;2023-02-18T05:28:35;98666.97;;;2.16;84.73
43741;BME280;29352;48.708;9.290;2023-02-18T05:31:01;98662.09;;;2.30;84.31
43741;BME280;29352;48.708;9.290;2023-02-18T05:33:27;98660.81;;;2.34;84.27
43741;BME280;29352;48.708;9.290;2023-02-18T05:35:52;98657.59;;;2.41;84.33
43741;BME280;29352;48.708;9.290;2023-02-18T05:38:18;98647.44;;;2.46;83.95
43741;BME280;29352;48.708;9.290;2023-02-18T05:40:43;98652.38;;;2.31;84.01
43741;BME280;29352;48.708;9.290;2023-02-18T05:43:10;98653.00;;;2.43;83.72
43741;BME280;29352;48.708;9.290;2023-02-18T05:45:35;98660.53;;;2.37;84.27
43741;BME280;29352;48.708;9.290;2023-02-18T05:48:01;98654.03;;;2.32;84.41
43741;BME280;29352;48.708;9.290;2023-02-18T05:50:27;98645.19;;;2.23;84.12
43741;BME280;29352;48.708;9.290;2023-02-18T05:52:53;98653.19;;;2.31;84.38
43741;BME280;29352;48.708;9.290;2023-02-18T05:55:18;98647.13;;;2.21;84.58
43741;BME280;29352;48.708;9.290;2023-02-18T05:57:44;98646.09;;;2.42;84.15
43741;BME280;29352;48.708;9.290;2023-02-18T06:00:09;98651.44;;;2.22;84.76
43741;BME280;29352;48.708;9.290;2023-02-18T06:02:36;98643.75;;;2.38;84.25
43741;BME280;29352;48.708;9.290;2023-02-18T06:05:03;98644.84;;;2.36;84.45
43741;BME280;29352;48.708;9.290;2023-02-18T06:07:29;98638.88;;;2.44;84.30
43741;BME280;29352;48.708;9.290;2023-02-18T06:09:55;98642.69;;;2.22;84.69
43741;BME280;29352;48.708;9.290;2023-02-18T06:12:20;98648.66;;;2.24;84.90
43741;BME280;29352;48.708;9.290;2023-02-18T06:14:46;98648.38;;;2.27;84.72
43741;BME280;29352;48.708;9.290;2023-02-18T06:17:12;98640.31;;;2.28;85.21
43741;BME280;29352;48.708;9.290;2023-02-18T06:19:39;98639.69;;;2.17;85.28
43741;BME280;29352;48.708;9.290;2023-02-18T06:22:06;98647.97;;;2.22;85.14
43741;BME280;29352;48.708;9.290;2023-02-18T06:24:32;98644.13;;;2.16;85.37
43741;BME280;29352;48.708;9.290;2023-02-18T06:26:58;98640.78;;;2.14;85.41
43741;BME280;29352;48.708;9.290;2023-02-18T06:29:23;98651.16;;;2.16;85.47
43741;BME280;29352;48.708;9.290;2023-02-18T06:31:49;98648.59;;;2.06;85.62
43741;BME280;29352;48.708;9.290;2023-02-18T06:34:15;98647.69;;;2.25;85.00
43741;BME280;29352;48.708;9.290;2023-02-18T06:36:41;98646.63;;;2.08;85.50
43741;BME280;29352;48.708;9.290;2023-02-18T06:39:07;98642.88;;;2.10;85.55
43741;BME280;29352;48.708;9.290;2023-02-18T06:41:33;98655.59;;;2.25;85.41
43741;BME280;29352;48.708;9.290;2023-02-18T06:43:58;98657.25;;;2.53;84.18
43741;BME280;29352;48.708;9.290;2023-02-18T06:46:24;98654.25;;;2.11;85.42
43741;BME280;29352;48.708;9.290;2023-02-18T06:48:49;98643.75;;;2.38;84.66
43741;BME280;29352;48.708;9.290;2023-02-18T06:51:15;98652.22;;;2.32;84.79
43741;BME280;29352;48.708;9.290;2023-02-18T06:53:41;98652.91;;;2.34;84.34
43741;BME280;29352;48.708;9.290;2023-02-18T06:56:08;98652.22;;;2.60;84.07
43741;BME280;29352;48.708;9.290;2023-02-18T06:58:34;98657.78;;;2.57;83.76
43741;BME280;29352;48.708;9.290;2023-02-18T07:00:59;98656.44;;;2.53;83.56
43741;BME280;29352;48.708;9.290;2023-02-18T07:03:25;98652.53;;;2.57;83.73
43741;BME280;29352;48.708;9.290;2023-02-18T07:05:51;98659.19;;;2.61;83.47
43741;BME280;29352;48.708;9.290;2023-02-18T07:08:17;98653.50;;;2.56;83.79
43741;BME280;29352;48.708;9.290;2023-02-18T07:10:42;98654.22;;;2.76;82.91
43741;BME280;29352;48.708;9.290;2023-02-18T07:13:08;98649.94;;;2.75;83.00
43741;BME280;29352;48.708;9.290;2023-02-18T07:15:34;98649.88;;;2.84;82.64
43741;BME280;29352;48.708;9.290;2023-02-18T07:17:59;98652.06;;;2.89;82.71
43741;BME280;29352;48.708;9.290;2023-02-18T07:20:26;98644.59;;;2.84;82.56
43741;BME280;29352;48.708;9.290;2023-02-18T07:22:52;98649.28;;;2.91;82.89
43741;BME280;29352;48.708;9.290;2023-02-18T07:25:19;98649.44;;;2.89;82.49
43741;BME280;29352;48.708;9.290;2023-02-18T07:27:44;98639.19;;;3.04;81.83
43741;BME280;29352;48.708;9.290;2023-02-18T07:30:11;98647.41;;;3.01;82.31
43741;BME280;29352;48.708;9.290;2023-02-18T07:32:37;98644.16;;;3.07;82.00
43741;BME280;29352;48.708;9.290;2023-02-18T07:35:04;98637.31;;;3.14;81.86
43741;BME280;29352;48.708;9.290;2023-02-18T07:37:30;98641.00;;;3.21;81.72
43741;BME280;29352;48.708;9.290;2023-02-18T07:39:55;98644.25;;;3.15;81.94
43741;BME280;29352;48.708;9.290;2023-02-18T07:42:21;98646.56;;;3.00;82.64
43741;BME280;29352;48.708;9.290;2023-02-18T07:44:47;98633.78;;;3.23;81.67
43741;BME280;29352;48.708;9.290;2023-02-18T07:47:14;98628.50;;;3.23;81.65
43741;BME280;29352;48.708;9.290;2023-02-18T07:49:44;98625.13;;;3.31;81.58
43741;BME280;29352;48.708;9.290;2023-02-18T07:52:11;98623.06;;;3.43;80.97
43741;BME280;29352;48.708;9.290;2023-02-18T07:54:36;98618.00;;;3.49;80.74
43741;BME280;29352;48.708;9.290;2023-02-18T07:57:02;98615.38;;;3.49;80.45
43741;BME280;29352;48.708;9.290;2023-02-18T07:59:28;98600.59;;;3.56;79.97
43741;BME280;29352;48.708;9.290;2023-02-18T08:01:53;98608.59;;;3.47;80.45
43741;BME280;29352;48.708;9.290;2023-02-18T08:04:19;98604.88;;;3.57;80.14
43741;BME280;29352;48.708;9.290;2023-02-18T08:06:47;98598.28;;;3.79;79.78
43741;BME280;29352;48.708;9.290;2023-02-18T08:09:15;98600.84;;;3.71;79.69
43741;BME280;29352;48.708;9.290;2023-02-18T08:11:42;98605.16;;;3.72;79.64
43741;BME280;29352;48.708;9.290;2023-02-18T08:14:08;98597.78;;;4.10;78.91
43741;BME280;29352;48.708;9.290;2023-02-18T08:16:34;98602.97;;;3.94;79.07
43741;BME280;29352;48.708;9.290;2023-02-18T08:19:00;98614.03;;;3.97;78.80
43741;BME280;29352;48.708;9.290;2023-02-18T08:21:27;98610.09;;;4.01;78.82
43741;BME280;29352;48.708;9.290;2023-02-18T08:23:53;98609.91;;;3.95;78.78
43741;BME280;29352;48.708;9.290;2023-02-18T08:26:19;98611.94;;;4.09;78.63
43741;BME280;29352;48.708;9.290;2023-02-18T08:28:46;98608.38;;;4.18;78.35
43741;BME280;29352;48.708;9.290;2023-02-18T08:31:17;98617.41;;;3.82;79.10
43741;BME280;29352;48.708;9.290;2023-02-18T08:33:45;98617.09;;;4.11;78.45
43741;BME280;29352;48.708;9.290;2023-02-18T08:36:11;98613.97;;;4.15;78.40
43741;BME280;29352;48.708;9.290;2023-02-18T08:38:36;98607.44;;;4.27;77.91
43741;BME280;29352;48.708;9.290;2023-02-18T08:41:03;98602.38;;;4.42;77.39
43741;BME280;29352;48.708;9.290;2023-02-18T08:43:30;98605.84;;;4.43;77.02
43741;BME280;29352;48.708;9.290;2023-02-18T08:45:57;98606.94;;;4.66;76.86
43741;BME280;29352;48.708;9.290;2023-02-18T08:48:23;98609.41;;;4.68;76.59
43741;BME280;29352;48.708;9.290;2023-02-18T08:50:50;98600.91;;;4.48;76.30
43741;BME280;29352;48.708;9.290;2023-02-18T08:53:17;98596.34;;;4.58;76.02
43741;BME280;29352;48.708;9.290;2023-02-18T08:55:43;98592.13;;;4.90;75.74
43741;BME280;29352;48.708;9.290;2023-02-18T08:58:09;98603.16;;;4.69;75.92
43741;BME280;29352;48.708;9.290;2023-02-18T09:00:36;98601.03;;;4.89;75.03
43741;BME280;29352;48.708;9.290;2023-02-18T09:03:04;98602.03;;;4.96;75.15
43741;BME280;29352;48.708;9.290;2023-02-18T09:05:30;98594.94;;;4.96;75.22
43741;BME280;29352;48.708;9.290;2023-02-18T09:07:56;98586.31;;;4.86;75.00
43741;BME280;29352;48.708;9.290;2023-02-18T09:10:22;98590.44;;;4.89;75.16
43741;BME280;29352;48.708;9.290;2023-02-18T09:12:48;98589.13;;;5.09;74.84
43741;BME280;29352;48.708;9.290;2023-02-18T09:15:14;98586.19;;;5.04;74.60
43741;BME280;29352;48.708;9.290;2023-02-18T09:17:40;98582.50;;;4.89;74.52
43741;BME280;29352;48.708;9.290;2023-02-18T09:20:06;98587.50;;;5.25;73.89
43741;BME280;29352;48.708;9.290;2023-02-18T09:22:32;98582.38;;;5.15;73.96
43741;BME280;29352;48.708;9.290;2023-02-18T09:24:58;98585.00;;;5.23;74.02
43741;BME280;29352;48.708;9.290;2023-02-18T09:27:24;98581.91;;;5.28;73.88
43741;BME280;29352;48.708;9.290;2023-02-18T09:29:50;98571.91;;;4.89;74.51
43741;BME280;29352;48.708;9.290;2023-02-18T09:32:16;98569.81;;;5.01;74.32
43741;BME280;29352;48.708;9.290;2023-02-18T09:34:43;98572.94;;;5.12;74.31
43741;BME280;29352;48.708;9.290;2023-02-18T09:37:10;98576.25;;;5.14;74.02
43741;BME280;29352;48.708;9.290;2023-02-18T09:39:35;98563.34;;;5.19;73.73
43741;BME280;29352;48.708;9.290;2023-02-18T09:42:07;98558.41;;;5.25;73.86
43741;BME280;29352;48.708;9.290;2023-02-18T09:44:51;98557.56;;;5.32;73.26
43741;BME280;29352;48.708;9.290;2023-02-18T09:47:40;98556.41;;;5.27;72.90
43741;BME280;29352;48.708;9.290;2023-02-18T09:52:52;98558.03;;;5.52;72.39
43741;BME280;29352;48.708;9.290;2023-02-18T09:55:31;98558.50;;;5.64;71.55
43741;BME280;29352;48.708;9.290;2023-02-18T09:58:19;98552.53;;;5.78;71.45
43741;BME280;29352;48.708;9.290;2023-02-18T10:03:36;98556.84;;;5.79;70.89
43741;BME280;29352;48.708;9.290;2023-02-18T10:06:06;98552.13;;;6.06;70.44
43741;BME280;29352;48.708;9.290;2023-02-18T10:08:44;98554.63;;;6.07;70.26
43741;BME280;29352;48.708;9.290;2023-02-18T10:11:17;98561.72;;;6.15;69.71
43741;BME280;29352;48.708;9.290;2023-02-18T10:13:49;98566.47;;;5.72;70.98
43741;BME280;29352;48.708;9.290;2023-02-18T10:16:18;98558.31;;;5.82;70.80
43741;BME280;29352;48.708;9.290;2023-02-18T10:18:48;98559.63;;;5.86;70.17
43741;BME280;29352;48.708;9.290;2023-02-18T10:21:24;98560.97;;;5.82;70.73
43741;BME280;29352;48.708;9.290;2023-02-18T10:26:54;98540.13;;;5.87;70.51
43741;BME280;29352;48.708;9.290;2023-02-18T10:29:21;98547.72;;;5.90;70.18
43741;BME280;29352;48.708;9.290;2023-02-18T10:32:27;98550.69;;;5.95;70.55
43741;BME280;29352;48.708;9.290;2023-02-18T10:35:13;98555.50;;;6.31;69.32
43741;BME280;29352;48.708;9.290;2023-02-18T10:37:59;98560.88;;;6.14;69.07
43741;BME280;29352;48.708;9.290;2023-02-18T10:41:15;98561.53;;;6.48;68.97
43741;BME280;29352;48.708;9.290;2023-02-18T10:47:36;98557.44;;;6.68;68.14
43741;BME280;29352;48.708;9.290;2023-02-18T10:50:39;98548.84;;;6.97;67.37
43741;BME280;29352;48.708;9.290;2023-02-18T10:53:30;98558.59;;;7.20;66.49
43741;BME280;29352;48.708;9.290;2023-02-18T10:55:59;98560.66;;;6.86;66.48
43741;BME280;29352;48.708;9.290;2023-02-18T10:58:46;98558.59;;;6.74;66.18
43741;BME280;29352;48.708;9.290;2023-02-18T11:01:16;98561.88;;;6.45;66.55
43741;BME280;29352;48.708;9.290;2023-02-18T11:03:49;98544.63;;;6.80;66.35
43741;BME280;29352;48.708;9.290;2023-02-18T11:06:40;98548.81;;;6.74;66.40
43741;BME280;29352;48.708;9.290;2023-02-18T11:12:19;98538.63;;;7.09;65.67
43741;BME280;29352;48.708;9.290;2023-02-18T11:17:40;98526.28;;;6.93;65.30
43741;BME280;29352;48.708;9.290;2023-02-18T11:20:37;98524.88;;;6.82;65.38
43741;BME280;29352;48.708;9.290;2023-02-18T11:25:34;98510.31;;;6.78;65.53
43741;BME280;29352;48.708;9.290;2023-02-18T11:28:05;98504.25;;;7.30;63.90
43741;BME280;29352;48.708;9.290;2023-02-18T11:30:57;98502.94;;;7.79;63.29
43741;BME280;29352;48.708;9.290;2023-02-18T11:36:11;98490.63;;;8.08;62.70
43741;BME280;29352;48.708;9.290;2023-02-18T11:38:46;98487.34;;;7.76;62.88
43741;BME280;29352;48.708;9.290;2023-02-18T11:41:18;98486.88;;;7.87;62.58
43741;BME280;29352;48.708;9.290;2023-02-18T11:43:50;98489.13;;;7.31;62.93
43741;BME280;29352;48.708;9.290;2023-02-18T11:46:23;98487.91;;;7.56;62.68
43741;BME280;29352;48.708;9.290;2023-02-18T11:48:51;98491.00;;;7.75;62.63
43741;BME280;29352;48.708;9.290;2023-02-18T11:51:23;98485.47;;;8.21;61.94
43741;BME280;29352;48.708;9.290;2023-02-18T11:57:17;98469.38;;;7.93;61.62
43741;BME280;29352;48.708;9.290;2023-02-18T11:59:50;98471.31;;;7.99;61.15
43741;BME280;29352;48.708;9.290;2023-02-18T12:07:46;98467.22;;;8.33;60.90
43741;BME280;29352;48.708;9.290;2023-02-18T12:10:38;98463.28;;;8.50;61.18
43741;BME280;29352;48.708;9.290;2023-02-18T12:13:33;98463.22;;;8.43;60.99
43741;BME280;29352;48.708;9.290;2023-02-18T12:16:24;98462.22;;;8.87;59.67
43741;BME280;29352;48.708;9.290;2023-02-18T12:22:11;98458.59;;;7.79;60.22
43741;BME280;29352;48.708;9.290;2023-02-18T12:25:09;98450.53;;;8.24;59.87
43741;BME280;29352;48.708;9.290;2023-02-18T12:40:29;98445.34;;;8.16;59.58
43741;BME280;29352;48.708;9.290;2023-02-18T12:49:18;98431.25;;;8.00;59.40
43741;BME280;29352;48.708;9.290;2023-02-18T12:51:54;98438.31;;;8.29;59.12
43741;BME280;29352;48.708;9.290;2023-02-18T13:03:53;98433.53;;;8.03;58.92
43741;BME280;29352;48.708;9.290;2023-02-18T13:06:47;98428.78;;;7.99;59.15
43741;BME280;29352;48.708;9.290;2023-02-18T13:12:55;98425.09;;;8.36;58.39
43741;BME280;29352;48.708;9.290;2023-02-18T13:18:02;98423.69;;;8.40;58.65
43741;BME280;29352;48.708;9.290;2023-02-18T13:20:43;98415.72;;;8.19;58.36
43741;BME280;29352;48.708;9.290;2023-02-18T13:23:33;98417.50;;;8.12;58.88
43741;BME280;29352;48.708;9.290;2023-02-18T13:26:07;98425.19;;;8.06;58.83
43741;BME280;29352;48.708;9.290;2023-02-18T13:40:25;98410.41;;;7.38;59.33
43741;BME280;29352;48.708;9.290;2023-02-18T13:51:32;98402.72;;;7.43;59.35
43741;BME280;29352;48.708;9.290;2023-02-18T13:57:15;98403.72;;;7.57;59.51
43741;BME280;29352;48.708;9.290;2023-02-18T13:59:48;98413.88;;;7.53;59.79
43741;BME280;29352;48.708;9.290;2023-02-18T14:22:47;98375.78;;;7.76;58.74
43741;BME280;29352;48.708;9.290;2023-02-18T14:27:55;98375.66;;;7.69;58.88
43741;BME280;29352;48.708;9.290;2023-02-18T14:32:48;98362.41;;;8.05;58.39
43741;BME280;29352;48.708;9.290;2023-02-18T14:40:57;98358.41;;;8.16;58.33
43741;BME280;29352;48.708;9.290;2023-02-18T14:49:48;98370.53;;;8.19;58.68
43741;BME280;29352;48.708;9.290;2023-02-18T14:52:33;98366.25;;;7.81;59.34
43741;BME280;29352;48.708;9.290;2023-02-18T14:55:38;98370.78;;;7.73;59.46
43741;BME280;29352;48.708;9.290;2023-02-18T14:58:12;98367.72;;;7.54;60.04
43741;BME280;29352;48.708;9.290;2023-02-18T15:00:51;98362.88;;;7.43;59.78
43741;BME280;29352;48.708;9.290;2023-02-18T15:03:19;98371.41;;;7.53;59.99
43741;BME280;29352;48.708;9.290;2023-02-18T15:05:48;98359.31;;;7.36;59.93
43741;BME280;29352;48.708;9.290;2023-02-18T15:08:21;98357.56;;;7.43;59.86
43741;BME280;29352;48.708;9.290;2023-02-18T15:10:58;98366.94;;;7.39;60.04
43741;BME280;29352;48.708;9.290;2023-02-18T15:13:50;98359.31;;;7.36;60.21
43741;BME280;29352;48.708;9.290;2023-02-18T15:16:28;98367.09;;;7.23;60.30
43741;BME280;29352;48.708;9.290;2023-02-18T15:19:00;98368.28;;;7.35;60.09
43741;BME280;29352;48.708;9.290;2023-02-18T15:21:35;98364.16;;;7.03;60.43
43741;BME280;29352;48.708;9.290;2023-02-18T15:24:29;98360.31;;;7.20;60.34
43741;BME280;29352;48.708;9.290;2023-02-18T15:27:11;98364.91;;;7.11;60.60
43741;BME280;29352;48.708;9.290;2023-02-18T15:29:42;98367.03;;;7.01;60.77
43741;BME280;29352;48.708;9.290;2023-02-18T15:32:22;98363.72;;;6.99;60.63
43741;BME280;29352;48.708;9.290;2023-02-18T15:34:59;98367.56;;;7.11;60.19
43741;BME280;29352;48.708;9.290;2023-02-18T15:37:27;98385.31;;;6.96;60.82
43741;BME280;29352;48.708;9.290;2023-02-18T15:39:53;98362.13;;;6.90;60.69
43741;BME280;29352;48.708;9.290;2023-02-18T15:42:31;98370.19;;;6.82;61.15
43741;BME280;29352;48.708;9.290;2023-02-18T15:45:08;98363.81;;;6.91;61.17
43741;BME280;29352;48.708;9.290;2023-02-18T15:47:51;98370.38;;;6.57;61.98
43741;BME280;29352;48.708;9.290;2023-02-18T15:50:25;98371.78;;;6.68;61.82
43741;BME280;29352;48.708;9.290;2023-02-18T15:52:54;98372.84;;;6.82;61.89
43741;BME280;29352;48.708;9.290;2023-02-18T15:55:33;98377.88;;;6.77;61.90
43741;BME280;29352;48.708;9.290;2023-02-18T15:58:09;98365.69;;;6.82;61.88
43741;BME280;29352;48.708;9.290;2023-02-18T16:00:50;98355.75;;;6.61;62.28
43741;BME280;29352;48.708;9.290;2023-02-18T16:03:23;98360.81;;;6.71;62.46
43741;BME280;29352;48.708;9.290;2023-02-18T16:08:37;98358.72;;;6.67;62.88
43741;BME280;29352;48.708;9.290;2023-02-18T16:11:10;98352.72;;;6.50;63.08
43741;BME280;29352;48.708;9.290;2023-02-18T16:13:45;98360.34;;;6.68;62.47
43741;BME280;29352;48.708;9.290;2023-02-18T16:16:26;98353.75;;;6.49;62.88
43741;BME280;29352;48.708;9.290;2023-02-18T16:18:54;98363.19;;;6.28;63.28